sensor_id;sensor_type;location;lat;lon;timestamp;pressure;altitude;pressure_sealevel;temperature;humidity
59063;BME280;44851;45.648;9.004;2024-01-30T00:01:02;100922.75;;;1.63;66.34
59063;BME280;44851;45.648;9.004;2024-01-30T00:03:27;100930.47;;;1.63;66.00
59063;BME280;44851;45.648;9.004;2024-01-30T00:05:54;100934.47;;;1.75;65.68
59063;BME280;44851;45.648;9.004;2024-01-30T00:08:20;100926.09;;;1.67;65.03
59063;BME280;44851;45.648;9.004;2024-01-30T00:10:45;100924.63;;;1.57;65.48
59063;BME280;44851;45.648;9.004;2024-01-30T00:13:11;100919.63;;;1.51;65.63
59063;BME280;44851;45.648;9.004;2024-01-30T00:15:37;100920.47;;;1.51;65.80
59063;BME280;44851;45.648;9.004;2024-01-30T00:18:02;100921.31;;;1.52;65.51
59063;BME280;44851;45.648;9.004;2024-01-30T00:20:28;100914.63;;;1.44;65.77
59063;BME280;44851;45.648;9.004;2024-01-30T00:22:53;100915.56;;;1.40;65.67
59063;BME280;44851;45.648;9.004;2024-01-30T00:25:18;100910.47;;;1.39;65.64
59063;BME280;44851;45.648;9.004;2024-01-30T00:27:44;100912.03;;;1.46;65.93
59063;BME280;44851;45.648;9.004;2024-01-30T00:30:10;100915.34;;;1.51;66.03
59063;BME280;44851;45.648;9.004;2024-01-30T00:32:35;100911.81;;;1.55;65.37
59063;BME280;44851;45.648;9.004;2024-01-30T00:35:01;100909.53;;;1.41;65.03
59063;BME280;44851;45.648;9.004;2024-01-30T00:37:26;100915.66;;;1.36;65.11
59063;BME280;44851;45.648;9.004;2024-01-30T00:39:52;100913.38;;;1.22;65.65
59063;BME280;44851;45.648;9.004;2024-01-30T00:42:17;100910.34;;;1.43;65.71
59063;BME280;44851;45.648;9.004;2024-01-30T00:44:42;100917.06;;;1.49;65.62
59063;BME280;44851;45.648;9.004;2024-01-30T00:47:08;100912.84;;;1.47;65.29
59063;BME280;44851;45.648;9.004;2024-01-30T00:49:33;100912.84;;;1.47;65.26
59063;BME280;44851;45.648;9.004;2024-01-30T00:51:59;100911.13;;;1.47;65.16
59063;BME280;44851;45.648;9.004;2024-01-30T00:54:24;100908.59;;;1.46;64.78
59063;BME280;44851;45.648;9.004;2024-01-30T00:56:50;100907.72;;;1.47;64.61
59063;BME280;44851;45.648;9.004;2024-01-30T00:59:15;100911.66;;;1.24;64.61
59063;BME280;44851;45.648;9.004;2024-01-30T01:01:41;100905.81;;;1.17;64.78
59063;BME280;44851;45.648;9.004;2024-01-30T01:04:06;100908.38;;;1.16;65.06
59063;BME280;44851;45.648;9.004;2024-01-30T01:06:32;100918.75;;;1.13;65.22
59063;BME280;44851;45.648;9.004;2024-01-30T01:08:57;100909.28;;;1.15;65.71
59063;BME280;44851;45.648;9.004;2024-01-30T01:11:23;100913.66;;;1.10;65.34
59063;BME280;44851;45.648;9.004;2024-01-30T01:13:48;100918.78;;;1.10;65.43
59063;BME280;44851;45.648;9.004;2024-01-30T01:16:14;100918.00;;;1.08;65.68
59063;BME280;44851;45.648;9.004;2024-01-30T01:18:39;100917.16;;;1.06;65.72
59063;BME280;44851;45.648;9.004;2024-01-30T01:21:05;100918.66;;;1.16;65.58
59063;BME280;44851;45.648;9.004;2024-01-30T01:23:31;100921.31;;;1.11;65.42
59063;BME280;44851;45.648;9.004;2024-01-30T01:25:56;100922.38;;;1.03;65.28
59063;BME280;44851;45.648;9.004;2024-01-30T01:28:22;100932.56;;;1.06;65.42
59063;BME280;44851;45.648;9.004;2024-01-30T01:30:47;100918.84;;;1.08;65.26
59063;BME280;44851;45.648;9.004;2024-01-30T01:33:12;100922.28;;;1.06;65.47
59063;BME280;44851;45.648;9.004;2024-01-30T01:35:39;100917.09;;;1.09;65.49
59063;BME280;44851;45.648;9.004;2024-01-30T01:38:05;100918.03;;;1.05;65.39
59063;BME280;44851;45.648;9.004;2024-01-30T01:40:30;100918.22;;;0.97;65.14
59063;BME280;44851;45.648;9.004;2024-01-30T01:42:56;100915.56;;;1.02;65.55
59063;BME280;44851;45.648;9.004;2024-01-30T01:45:22;100909.47;;;1.06;65.62
59063;BME280;44851;45.648;9.004;2024-01-30T01:47:52;100913.59;;;1.13;65.53
59063;BME280;44851;45.648;9.004;2024-01-30T01:50:22;100913.16;;;0.92;65.15
59063;BME280;44851;45.648;9.004;2024-01-30T01:52:49;100915.66;;;0.96;65.07
59063;BME280;44851;45.648;9.004;2024-01-30T01:55:16;100910.50;;;0.97;64.70
59063;BME280;44851;45.648;9.004;2024-01-30T01:57:43;100911.41;;;0.95;64.83
59063;BME280;44851;45.648;9.004;2024-01-30T02:00:10;100913.84;;;1.01;65.24
59063;BME280;44851;45.648;9.004;2024-01-30T02:02:36;100913.78;;;1.04;64.71
59063;BME280;44851;45.648;9.004;2024-01-30T02:05:02;100913.16;;;0.92;65.24
59063;BME280;44851;45.648;9.004;2024-01-30T02:07:28;100908.91;;;0.91;64.85
59063;BME280;44851;45.648;9.004;2024-01-30T02:09:54;100910.59;;;0.92;65.27
59063;BME280;44851;45.648;9.004;2024-01-30T02:12:20;100921.75;;;0.91;65.69
59063;BME280;44851;45.648;9.004;2024-01-30T02:14:46;100914.16;;;0.85;64.99
59063;BME280;44851;45.648;9.004;2024-01-30T02:17:12;100914.91;;;0.90;65.30
59063;BME280;44851;45.648;9.004;2024-01-30T02:19:39;100917.59;;;0.84;65.27
59063;BME280;44851;45.648;9.004;2024-01-30T02:22:04;100915.88;;;0.85;65.15
59063;BME280;44851;45.648;9.004;2024-01-30T02:24:30;100910.78;;;0.83;65.42
59063;BME280;44851;45.648;9.004;2024-01-30T02:26:55;100912.53;;;0.81;65.63
59063;BME280;44851;45.648;9.004;2024-01-30T02:29:21;100908.31;;;0.79;65.51
59063;BME280;44851;45.648;9.004;2024-01-30T02:31:46;100912.53;;;0.81;65.22
59063;BME280;44851;45.648;9.004;2024-01-30T02:34:12;100912.66;;;0.75;65.63
59063;BME280;44851;45.648;9.004;2024-01-30T02:36:37;100912.56;;;0.80;66.26
59063;BME280;44851;45.648;9.004;2024-01-30T02:39:03;100920.16;;;0.86;65.91
59063;BME280;44851;45.648;9.004;2024-01-30T02:41:29;100914.41;;;0.73;65.39
59063;BME280;44851;45.648;9.004;2024-01-30T02:43:54;100918.81;;;0.67;66.01
59063;BME280;44851;45.648;9.004;2024-01-30T02:46:19;100913.59;;;0.71;65.84
59063;BME280;44851;45.648;9.004;2024-01-30T02:48:45;100912.59;;;0.78;66.29
59063;BME280;44851;45.648;9.004;2024-01-30T02:51:10;100912.09;;;0.61;66.17
59063;BME280;44851;45.648;9.004;2024-01-30T02:53:36;100908.69;;;0.59;66.57
59063;BME280;44851;45.648;9.004;2024-01-30T02:56:04;100906.13;;;0.59;66.45
59063;BME280;44851;45.648;9.004;2024-01-30T02:58:30;100907.00;;;0.59;66.37
59063;BME280;44851;45.648;9.004;2024-01-30T03:00:56;100901.09;;;0.53;66.83
59063;BME280;44851;45.648;9.004;2024-01-30T03:03:21;100909.56;;;0.58;66.81
59063;BME280;44851;45.648;9.004;2024-01-30T03:05:47;100905.19;;;0.63;66.42
59063;BME280;44851;45.648;9.004;2024-01-30T03:08:12;100905.22;;;0.61;66.42
59063;BME280;44851;45.648;9.004;2024-01-30T03:10:38;100902.53;;;0.68;66.67
59063;BME280;44851;45.648;9.004;2024-01-30T03:13:03;100906.13;;;0.59;66.28
59063;BME280;44851;45.648;9.004;2024-01-30T03:15:29;100898.34;;;0.63;66.32
59063;BME280;44851;45.648;9.004;2024-01-30T03:17:54;100900.94;;;0.62;66.52
59063;BME280;44851;45.648;9.004;2024-01-30T03:20:19;100902.63;;;0.63;66.19
59063;BME280;44851;45.648;9.004;2024-01-30T03:22:45;100903.59;;;0.57;66.37
59063;BME280;44851;45.648;9.004;2024-01-30T03:25:10;100897.72;;;0.51;66.15
59063;BME280;44851;45.648;9.004;2024-01-30T03:27:36;100904.56;;;0.52;66.64
59063;BME280;44851;45.648;9.004;2024-01-30T03:30:01;100898.50;;;0.56;66.56
59063;BME280;44851;45.648;9.004;2024-01-30T03:32:27;100890.84;;;0.53;66.40
59063;BME280;44851;45.648;9.004;2024-01-30T03:34:53;100890.84;;;0.53;66.54
59063;BME280;44851;45.648;9.004;2024-01-30T03:37:18;100882.34;;;0.51;66.20
59063;BME280;44851;45.648;9.004;2024-01-30T03:39:44;100882.38;;;0.49;66.71
59063;BME280;44851;45.648;9.004;2024-01-30T03:42:09;100884.91;;;0.51;66.39
59063;BME280;44851;45.648;9.004;2024-01-30T03:44:35;100884.03;;;0.52;66.61
59063;BME280;44851;45.648;9.004;2024-01-30T03:47:00;100890.06;;;0.49;66.66
59063;BME280;44851;45.648;9.004;2024-01-30T03:49:26;100885.75;;;0.51;66.26
59063;BME280;44851;45.648;9.004;2024-01-30T03:51:51;100886.53;;;0.55;66.51
59063;BME280;44851;45.648;9.004;2024-01-30T03:54:16;100875.56;;;0.47;66.25
59063;BME280;44851;45.648;9.004;2024-01-30T03:56:42;100877.25;;;0.48;65.93
59063;BME280;44851;45.648;9.004;2024-01-30T03:59:07;100879.03;;;0.46;66.07
59063;BME280;44851;45.648;9.004;2024-01-30T04:01:33;100882.50;;;0.42;66.12
59063;BME280;44851;45.648;9.004;2024-01-30T04:03:58;100880.69;;;0.47;66.42
59063;BME280;44851;45.648;9.004;2024-01-30T04:06:24;100884.03;;;0.52;66.29
59063;BME280;44851;45.648;9.004;2024-01-30T04:08:49;100880.66;;;0.48;66.19
59063;BME280;44851;45.648;9.004;2024-01-30T04:11:15;100884.94;;;0.48;65.84
59063;BME280;44851;45.648;9.004;2024-01-30T04:13:40;100884.19;;;0.43;65.89
59063;BME280;44851;45.648;9.004;2024-01-30T04:16:08;100887.53;;;0.48;65.93
59063;BME280;44851;45.648;9.004;2024-01-30T04:18:33;100890.97;;;0.47;66.11
59063;BME280;44851;45.648;9.004;2024-01-30T04:21:00;100889.44;;;0.38;65.93
59063;BME280;44851;45.648;9.004;2024-01-30T04:23:25;100884.19;;;0.43;65.98
59063;BME280;44851;45.648;9.004;2024-01-30T04:25:50;100882.59;;;0.38;65.57
59063;BME280;44851;45.648;9.004;2024-01-30T04:28:16;100868.81;;;0.43;65.61
59063;BME280;44851;45.648;9.004;2024-01-30T04:30:41;100875.69;;;0.41;65.61
59063;BME280;44851;45.648;9.004;2024-01-30T04:33:07;100867.19;;;0.38;65.62
59063;BME280;44851;45.648;9.004;2024-01-30T04:35:32;100871.41;;;0.41;66.01
59063;BME280;44851;45.648;9.004;2024-01-30T04:37:58;100870.56;;;0.41;65.63
59063;BME280;44851;45.648;9.004;2024-01-30T04:40:23;100883.44;;;0.39;65.86
59063;BME280;44851;45.648;9.004;2024-01-30T04:42:49;100875.75;;;0.37;65.52
59063;BME280;44851;45.648;9.004;2024-01-30T04:45:14;100872.25;;;0.42;65.62
59063;BME280;44851;45.648;9.004;2024-01-30T04:47:40;100877.41;;;0.40;65.27
59063;BME280;44851;45.648;9.004;2024-01-30T04:50:08;100871.41;;;0.41;65.35
59063;BME280;44851;45.648;9.004;2024-01-30T04:52:34;100875.75;;;0.37;65.59
59063;BME280;44851;45.648;9.004;2024-01-30T04:55:00;100871.53;;;0.35;65.10
59063;BME280;44851;45.648;9.004;2024-01-30T04:57:25;100868.03;;;0.39;65.38
59063;BME280;44851;45.648;9.004;2024-01-30T04:59:51;100874.91;;;0.37;65.35
59063;BME280;44851;45.648;9.004;2024-01-30T05:02:16;100876.63;;;0.36;65.58
59063;BME280;44851;45.648;9.004;2024-01-30T05:04:41;100880.03;;;0.38;65.73
59063;BME280;44851;45.648;9.004;2024-01-30T05:07:07;100877.63;;;0.29;65.83
59063;BME280;44851;45.648;9.004;2024-01-30T05:09:32;100877.47;;;0.38;65.91
59063;BME280;44851;45.648;9.004;2024-01-30T05:11:58;100877.50;;;0.35;65.46
59063;BME280;44851;45.648;9.004;2024-01-30T05:14:23;100884.31;;;0.36;65.63
59063;BME280;44851;45.648;9.004;2024-01-30T05:16:49;100883.53;;;0.33;65.70
59063;BME280;44851;45.648;9.004;2024-01-30T05:19:14;100877.50;;;0.35;65.83
59063;BME280;44851;45.648;9.004;2024-01-30T05:21:41;100882.63;;;0.35;65.45
59063;BME280;44851;45.648;9.004;2024-01-30T05:24:06;100881.75;;;0.36;65.69
59063;BME280;44851;45.648;9.004;2024-01-30T05:26:32;100888.47;;;0.42;65.27
59063;BME280;44851;45.648;9.004;2024-01-30T05:28:57;100882.47;;;0.45;64.86
59063;BME280;44851;45.648;9.004;2024-01-30T05:31:23;100879.13;;;0.39;65.47
59063;BME280;44851;45.648;9.004;2024-01-30T05:33:48;100875.81;;;0.34;65.46
59063;BME280;44851;45.648;9.004;2024-01-30T05:36:14;100879.13;;;0.39;65.60
59063;BME280;44851;45.648;9.004;2024-01-30T05:38:39;100877.47;;;0.38;65.41
59063;BME280;44851;45.648;9.004;2024-01-30T05:41:05;100884.28;;;0.39;65.45
59063;BME280;44851;45.648;9.004;2024-01-30T05:43:31;100879.19;;;0.38;65.29
59063;BME280;44851;45.648;9.004;2024-01-30T05:45:56;100887.72;;;0.38;65.47
59063;BME280;44851;45.648;9.004;2024-01-30T05:48:21;100882.69;;;0.32;65.17
59063;BME280;44851;45.648;9.004;2024-01-30T05:50:47;100887.84;;;0.32;65.49
59063;BME280;44851;45.648;9.004;2024-01-30T05:53:12;100881.94;;;0.26;65.93
59063;BME280;44851;45.648;9.004;2024-01-30T05:55:38;100884.44;;;0.30;65.82
59063;BME280;44851;45.648;9.004;2024-01-30T05:58:03;100887.91;;;0.26;65.52
59063;BME280;44851;45.648;9.004;2024-01-30T06:00:29;100889.63;;;0.27;65.86
59063;BME280;44851;45.648;9.004;2024-01-30T06:02:55;100888.75;;;0.28;65.36
59063;BME280;44851;45.648;9.004;2024-01-30T06:05:20;100888.75;;;0.27;65.18
59063;BME280;44851;45.648;9.004;2024-01-30T06:07:45;100881.94;;;0.26;65.20
59063;BME280;44851;45.648;9.004;2024-01-30T06:10:11;100887.06;;;0.27;65.14
59063;BME280;44851;45.648;9.004;2024-01-30T06:12:37;100886.31;;;0.22;65.49
59063;BME280;44851;45.648;9.004;2024-01-30T06:15:03;100886.22;;;0.25;65.24
59063;BME280;44851;45.648;9.004;2024-01-30T06:17:29;100886.31;;;0.22;65.22
59063;BME280;44851;45.648;9.004;2024-01-30T06:19:54;100894.97;;;0.15;64.99
59063;BME280;44851;45.648;9.004;2024-01-30T06:22:20;100894.84;;;0.21;65.57
59063;BME280;44851;45.648;9.004;2024-01-30T06:24:45;100890.59;;;0.20;65.40
59063;BME280;44851;45.648;9.004;2024-01-30T06:27:13;100893.97;;;0.24;65.51
59063;BME280;44851;45.648;9.004;2024-01-30T06:29:39;100885.66;;;0.09;64.89
59063;BME280;44851;45.648;9.004;2024-01-30T06:32:05;100894.13;;;0.15;65.57
59063;BME280;44851;45.648;9.004;2024-01-30T06:34:30;100884.97;;;-0.00;65.01
59063;BME280;44851;45.648;9.004;2024-01-30T06:36:56;100889.22;;;0.02;65.46
59063;BME280;44851;45.648;9.004;2024-01-30T06:39:21;100889.94;;;0.09;65.63
59063;BME280;44851;45.648;9.004;2024-01-30T06:41:47;100891.63;;;0.10;65.83
59063;BME280;44851;45.648;9.004;2024-01-30T06:44:12;100896.81;;;0.07;65.54
59063;BME280;44851;45.648;9.004;2024-01-30T06:46:38;100898.44;;;0.12;65.39
59063;BME280;44851;45.648;9.004;2024-01-30T06:49:04;100901.88;;;0.10;65.65
59063;BME280;44851;45.648;9.004;2024-01-30T06:51:29;100903.41;;;0.20;65.30
59063;BME280;44851;45.648;9.004;2024-01-30T06:53:55;100903.50;;;0.16;65.55
59063;BME280;44851;45.648;9.004;2024-01-30T06:56:20;100905.28;;;0.12;65.63
59063;BME280;44851;45.648;9.004;2024-01-30T06:58:52;100907.78;;;0.17;65.75
59063;BME280;44851;45.648;9.004;2024-01-30T07:01:17;100912.78;;;0.21;65.49
59063;BME280;44851;45.648;9.004;2024-01-30T07:03:43;100913.59;;;0.25;65.52
59063;BME280;44851;45.648;9.004;2024-01-30T07:06:09;100910.16;;;0.27;65.93
59063;BME280;44851;45.648;9.004;2024-01-30T07:08:36;100913.56;;;0.26;65.71
59063;BME280;44851;45.648;9.004;2024-01-30T07:11:02;100916.13;;;0.26;65.47
59063;BME280;44851;45.648;9.004;2024-01-30T07:13:28;100911.75;;;0.31;65.63
59063;BME280;44851;45.648;9.004;2024-01-30T07:15:54;100908.34;;;0.32;65.83
59063;BME280;44851;45.648;9.004;2024-01-30T07:18:19;100916.78;;;0.37;65.49
59063;BME280;44851;45.648;9.004;2024-01-30T07:20:45;100912.53;;;0.36;65.83
59063;BME280;44851;45.648;9.004;2024-01-30T07:23:15;100927.03;;;0.37;65.94
59063;BME280;44851;45.648;9.004;2024-01-30T07:25:42;100912.41;;;0.43;65.82
59063;BME280;44851;45.648;9.004;2024-01-30T07:28:08;100922.59;;;0.47;66.14
59063;BME280;44851;45.648;9.004;2024-01-30T07:30:42;100921.63;;;0.53;66.03
59063;BME280;44851;45.648;9.004;2024-01-30T07:33:08;100927.59;;;0.53;65.86
59063;BME280;44851;45.648;9.004;2024-01-30T07:35:35;100918.78;;;0.70;65.29
59063;BME280;44851;45.648;9.004;2024-01-30T07:38:00;100923.78;;;0.74;65.32
59063;BME280;44851;45.648;9.004;2024-01-30T07:40:26;100925.56;;;0.72;65.55
59063;BME280;44851;45.648;9.004;2024-01-30T07:42:55;100925.38;;;0.80;65.56
59063;BME280;44851;45.648;9.004;2024-01-30T07:45:21;100930.47;;;0.83;65.63
59063;BME280;44851;45.648;9.004;2024-01-30T07:47:49;100920.22;;;0.83;65.56
59063;BME280;44851;45.648;9.004;2024-01-30T07:50:14;100927.69;;;0.94;65.97
59063;BME280;44851;45.648;9.004;2024-01-30T07:52:40;100926.78;;;0.96;65.48
59063;BME280;44851;45.648;9.004;2024-01-30T07:55:05;100934.38;;;1.01;65.92
59063;BME280;44851;45.648;9.004;2024-01-30T07:57:33;100931.69;;;1.07;65.68
59063;BME280;44851;45.648;9.004;2024-01-30T07:59:59;100935.84;;;1.14;65.65
59063;BME280;44851;45.648;9.004;2024-01-30T08:02:24;100941.63;;;1.24;65.32
59063;BME280;44851;45.648;9.004;2024-01-30T08:04:50;100941.31;;;1.37;65.56
59063;BME280;44851;45.648;9.004;2024-01-30T08:07:15;100941.03;;;1.51;65.10
59063;BME280;44851;45.648;9.004;2024-01-30T08:09:43;100941.66;;;1.61;65.12
59063;BME280;44851;45.648;9.004;2024-01-30T08:12:10;100943.16;;;1.71;65.36
59063;BME280;44851;45.648;9.004;2024-01-30T08:14:35;100938.84;;;1.72;65.05
59063;BME280;44851;45.648;9.004;2024-01-30T08:17:01;100948.91;;;1.81;65.47
59063;BME280;44851;45.648;9.004;2024-01-30T08:19:26;100936.63;;;1.92;65.17
59063;BME280;44851;45.648;9.004;2024-01-30T08:21:51;100945.88;;;2.01;65.10
59063;BME280;44851;45.648;9.004;2024-01-30T08:24:17;100943.03;;;2.11;64.91
59063;BME280;44851;45.648;9.004;2024-01-30T08:26:42;100945.44;;;2.19;65.19
59063;BME280;44851;45.648;9.004;2024-01-30T08:29:08;100950.41;;;2.25;66.36
59063;BME280;44851;45.648;9.004;2024-01-30T08:31:33;100940.91;;;2.27;66.05
59063;BME280;44851;45.648;9.004;2024-01-30T08:33:59;100945.00;;;2.34;65.95
59063;BME280;44851;45.648;9.004;2024-01-30T08:36:25;100941.41;;;2.41;66.88
59063;BME280;44851;45.648;9.004;2024-01-30T08:38:50;100943.72;;;2.52;67.08
59063;BME280;44851;45.648;9.004;2024-01-30T08:41:16;100947.84;;;2.58;67.07
59063;BME280;44851;45.648;9.004;2024-01-30T08:43:41;100944.03;;;2.71;67.25
59063;BME280;44851;45.648;9.004;2024-01-30T08:46:06;100933.44;;;2.83;67.67
59063;BME280;44851;45.648;9.004;2024-01-30T08:48:32;100944.88;;;3.02;67.30
59063;BME280;44851;45.648;9.004;2024-01-30T08:50:58;100944.38;;;3.21;67.02
59063;BME280;44851;45.648;9.004;2024-01-30T08:53:23;100945.59;;;3.37;66.54
59063;BME280;44851;45.648;9.004;2024-01-30T08:55:48;100947.06;;;3.46;65.25
59063;BME280;44851;45.648;9.004;2024-01-30T08:58:14;100942.81;;;3.45;65.04
59063;BME280;44851;45.648;9.004;2024-01-30T09:00:40;100955.16;;;3.63;64.55
59063;BME280;44851;45.648;9.004;2024-01-30T09:03:06;100947.69;;;3.82;64.54
59063;BME280;44851;45.648;9.004;2024-01-30T09:05:31;100952.13;;;3.78;64.49
59063;BME280;44851;45.648;9.004;2024-01-30T09:07:57;100953.22;;;3.70;63.35
59063;BME280;44851;45.648;9.004;2024-01-30T09:10:22;100950.03;;;3.90;63.79
59063;BME280;44851;45.648;9.004;2024-01-30T09:12:48;100959.13;;;4.01;64.50
59063;BME280;44851;45.648;9.004;2024-01-30T09:15:14;100958.63;;;4.17;64.87
59063;BME280;44851;45.648;9.004;2024-01-30T09:17:40;100962.41;;;4.31;63.83
59063;BME280;44851;45.648;9.004;2024-01-30T09:20:06;100957.03;;;4.63;62.74
59063;BME280;44851;45.648;9.004;2024-01-30T09:22:31;100954.81;;;5.02;62.47
59063;BME280;44851;45.648;9.004;2024-01-30T09:24:57;100954.38;;;5.36;61.66
59063;BME280;44851;45.648;9.004;2024-01-30T09:27:23;100957.03;;;5.78;60.73
59063;BME280;44851;45.648;9.004;2024-01-30T09:29:49;100963.47;;;5.92;58.48
59063;BME280;44851;45.648;9.004;2024-01-30T09:32:14;100955.72;;;6.32;59.04
59063;BME280;44851;45.648;9.004;2024-01-30T09:34:40;100951.28;;;6.56;56.97
59063;BME280;44851;45.648;9.004;2024-01-30T09:37:06;100953.63;;;6.81;56.04
59063;BME280;44851;45.648;9.004;2024-01-30T09:39:32;100958.00;;;7.00;56.53
59063;BME280;44851;45.648;9.004;2024-01-30T09:42:05;100962.44;;;7.16;54.46
59063;BME280;44851;45.648;9.004;2024-01-30T09:44:37;100961.16;;;7.44;54.63
59063;BME280;44851;45.648;9.004;2024-01-30T09:47:04;100961.16;;;7.63;54.24
59063;BME280;44851;45.648;9.004;2024-01-30T09:49:34;100962.69;;;7.86;52.42
59063;BME280;44851;45.648;9.004;2024-01-30T09:52:02;100968.97;;;7.99;51.66
59063;BME280;44851;45.648;9.004;2024-01-30T09:54:31;100973.09;;;8.03;52.10
59063;BME280;44851;45.648;9.004;2024-01-30T09:56:57;100971.28;;;8.40;51.86
59063;BME280;44851;45.648;9.004;2024-01-30T09:59:23;100970.34;;;8.41;50.69
59063;BME280;44851;45.648;9.004;2024-01-30T10:01:50;100972.78;;;8.61;51.02
59063;BME280;44851;45.648;9.004;2024-01-30T10:04:15;100975.53;;;8.75;50.54
59063;BME280;44851;45.648;9.004;2024-01-30T10:06:41;100977.28;;;9.08;50.78
59063;BME280;44851;45.648;9.004;2024-01-30T10:09:07;100972.69;;;9.29;49.84
59063;BME280;44851;45.648;9.004;2024-01-30T10:11:33;100976.03;;;9.33;49.14
59063;BME280;44851;45.648;9.004;2024-01-30T10:14:00;100977.50;;;8.88;48.34
59063;BME280;44851;45.648;9.004;2024-01-30T10:16:25;100962.50;;;9.42;48.10
59063;BME280;44851;45.648;9.004;2024-01-30T10:18:51;100967.75;;;9.24;47.55
59063;BME280;44851;45.648;9.004;2024-01-30T10:21:16;100966.75;;;9.74;47.90
59063;BME280;44851;45.648;9.004;2024-01-30T10:23:43;100968.59;;;9.88;46.09
59063;BME280;44851;45.648;9.004;2024-01-30T10:26:09;100966.19;;;10.15;46.25
59063;BME280;44851;45.648;9.004;2024-01-30T10:28:35;100964.91;;;9.92;45.02
59063;BME280;44851;45.648;9.004;2024-01-30T10:31:01;100960.53;;;9.93;45.96
59063;BME280;44851;45.648;9.004;2024-01-30T10:33:31;100960.66;;;9.75;44.27
59063;BME280;44851;45.648;9.004;2024-01-30T10:36:02;100959.69;;;9.92;45.20
59063;BME280;44851;45.648;9.004;2024-01-30T10:38:29;100954.81;;;10.02;44.85
59063;BME280;44851;45.648;9.004;2024-01-30T10:40:59;100950.72;;;10.12;44.28
59063;BME280;44851;45.648;9.004;2024-01-30T10:43:32;100951.75;;;10.54;43.86
59063;BME280;44851;45.648;9.004;2024-01-30T10:46:19;100943.16;;;10.82;43.96
59063;BME280;44851;45.648;9.004;2024-01-30T10:48:50;100938.66;;;10.84;42.14
59063;BME280;44851;45.648;9.004;2024-01-30T10:51:16;100936.13;;;11.11;42.91
59063;BME280;44851;45.648;9.004;2024-01-30T10:53:46;100935.47;;;11.07;42.63
59063;BME280;44851;45.648;9.004;2024-01-30T10:56:12;100926.63;;;11.24;42.86
59063;BME280;44851;45.648;9.004;2024-01-30T10:58:38;100921.69;;;11.20;42.39
59063;BME280;44851;45.648;9.004;2024-01-30T11:01:05;100924.19;;;11.21;41.64
59063;BME280;44851;45.648;9.004;2024-01-30T11:03:32;100916.63;;;11.31;40.78
59063;BME280;44851;45.648;9.004;2024-01-30T11:06:00;100915.16;;;11.54;41.34
59063;BME280;44851;45.648;9.004;2024-01-30T11:08:26;100917.63;;;11.82;40.64
59063;BME280;44851;45.648;9.004;2024-01-30T11:10:57;100913.69;;;11.89;40.34
59063;BME280;44851;45.648;9.004;2024-01-30T11:13:27;100908.25;;;11.92;40.20
59063;BME280;44851;45.648;9.004;2024-01-30T11:15:54;100895.75;;;11.98;40.21
59063;BME280;44851;45.648;9.004;2024-01-30T11:18:26;100900.91;;;11.72;40.11
59063;BME280;44851;45.648;9.004;2024-01-30T11:20:56;100903.34;;;11.61;39.42
59063;BME280;44851;45.648;9.004;2024-01-30T11:23:22;100894.09;;;11.43;39.17
59063;BME280;44851;45.648;9.004;2024-01-30T11:25:48;100892.91;;;11.34;39.38
59063;BME280;44851;45.648;9.004;2024-01-30T11:28:14;100894.13;;;11.28;39.56
59063;BME280;44851;45.648;9.004;2024-01-30T11:30:44;100887.00;;;11.45;39.84
59063;BME280;44851;45.648;9.004;2024-01-30T11:33:11;100887.50;;;11.37;39.36
59063;BME280;44851;45.648;9.004;2024-01-30T11:35:41;100884.09;;;11.22;40.22
59063;BME280;44851;45.648;9.004;2024-01-30T11:38:11;100882.41;;;11.21;40.95
59063;BME280;44851;45.648;9.004;2024-01-30T11:40:38;100885.28;;;11.31;39.39
59063;BME280;44851;45.648;9.004;2024-01-30T11:43:05;100886.31;;;11.28;40.97
59063;BME280;44851;45.648;9.004;2024-01-30T11:45:32;100877.88;;;11.64;40.45
59063;BME280;44851;45.648;9.004;2024-01-30T11:47:58;100876.31;;;12.02;40.23
59063;BME280;44851;45.648;9.004;2024-01-30T11:50:33;100880.97;;;12.36;39.74
59063;BME280;44851;45.648;9.004;2024-01-30T11:53:02;100869.66;;;12.49;39.05
59063;BME280;44851;45.648;9.004;2024-01-30T11:55:29;100861.84;;;12.85;37.87
59063;BME280;44851;45.648;9.004;2024-01-30T11:57:55;100860.81;;;12.75;38.23
59063;BME280;44851;45.648;9.004;2024-01-30T12:00:21;100858.09;;;12.89;38.24
59063;BME280;44851;45.648;9.004;2024-01-30T12:02:54;100854.75;;;12.62;37.17
59063;BME280;44851;45.648;9.004;2024-01-30T12:05:23;100843.31;;;12.88;38.50
59063;BME280;44851;45.648;9.004;2024-01-30T12:07:48;100842.00;;;12.70;37.63
59063;BME280;44851;45.648;9.004;2024-01-30T12:10:14;100833.53;;;13.03;37.32
59063;BME280;44851;45.648;9.004;2024-01-30T12:12:45;100835.19;;;13.04;34.83
59063;BME280;44851;45.648;9.004;2024-01-30T12:15:11;100833.91;;;12.86;33.61
59063;BME280;44851;45.648;9.004;2024-01-30T12:17:37;100839.00;;;13.00;33.82
59063;BME280;44851;45.648;9.004;2024-01-30T12:20:22;100829.50;;;13.10;34.79
59063;BME280;44851;45.648;9.004;2024-01-30T12:22:49;100822.88;;;13.30;35.38
59063;BME280;44851;45.648;9.004;2024-01-30T12:25:17;100816.47;;;13.34;34.19
59063;BME280;44851;45.648;9.004;2024-01-30T12:27:47;100817.91;;;13.38;34.22
59063;BME280;44851;45.648;9.004;2024-01-30T12:30:15;100807.91;;;13.32;34.66
59063;BME280;44851;45.648;9.004;2024-01-30T12:32:43;100802.34;;;13.48;34.83
59063;BME280;44851;45.648;9.004;2024-01-30T12:35:16;100799.75;;;13.48;34.58
59063;BME280;44851;45.648;9.004;2024-01-30T12:37:43;100794.13;;;13.53;34.99
59063;BME280;44851;45.648;9.004;2024-01-30T12:40:09;100792.72;;;13.48;34.84
59063;BME280;44851;45.648;9.004;2024-01-30T12:42:35;100794.94;;;13.42;34.58
59063;BME280;44851;45.648;9.004;2024-01-30T12:45:04;100790.94;;;13.25;34.07
59063;BME280;44851;45.648;9.004;2024-01-30T12:47:30;100789.72;;;13.18;34.33
59063;BME280;44851;45.648;9.004;2024-01-30T12:49:56;100776.59;;;12.94;34.23
59063;BME280;44851;45.648;9.004;2024-01-30T12:52:22;100780.91;;;13.19;35.18